Clarksville, MI

9:01 PM EST on December 12, 2017 (GMT -0500)
MMICLR | | Change Station
Active Advisory: Winter Weather Advisory

Elev 892 ft 42.87 °N, 85.26 °W | Updated 210 days ago

Mostly Cloudy
Mostly Cloudy
80.0 °F
Feels Like 80 °F
N
5.0
Wind Variable Wind from SSW

Today
High -- | Low -- °F
--% Chance of Precip.
Yesterday
High -- | Low -- °F
Precip. -- in
Pressure 29.91 in
Visibility 10.0 miles
Clouds Overcast 4800 ft
Heat Index 80 °F
Dew Point 55 °F
Humidity 42%
Rainfall 0.03 in
Snow Depth Not available.
8:02 AM 5:06 PM
Waning Crescent, 23% visible
METAR KY70 130135Z AUTO 28007KT 10SM OVC048 M08/M13 A2991 RMK AO2 T10801130
Pressure 29.91 in
Visibility 10.0 miles
Clouds Overcast 4800 ft
Heat Index 80 °F
Dew Point 55 °F
Humidity 42%
Rainfall 0.03 in
Snow Depth Not available.
8:02 AM 5:06 PM
Waning Crescent, 23% visible
METAR KY70 130135Z AUTO 28007KT 10SM OVC048 M08/M13 A2991 RMK AO2 T10801130

Get Your Daily Forecast Email!

Thanks for signing up!

Be on the lookout for a verification email in your inbox.

You'll start receiving severe weather alerts in your inbox..

×

10-Day Weather Forecast

Almanac

Astronomy

Dec. 12, 2017 Rise Set
Actual Time
Civil Twilight
Nautical Twilight
Astronomical Twilight
Moon
Length of Visible Light
Length of Day
Tomorrow will be .
, % of the Moon is Illuminated

Today's Extremes

State Highs State Lows

Community

WunderPhotos

Category 6

Welcome to Category 6. This is the collective home for Weather Underground's featured writeups by Dr. Jeff Masters (right), Bob Henson (left), Chris Burt, and other regular contributors.

Nearby

Air Quality

  Air Quality AQ Index Pollutant
Not available.

Snow Depth

Station Depth Elevation

Earthquake Activity

City Distance Mag. Time & Date
Minimum magnitude displayed is 2.5.

Coastal Water Temperatures

Place Temperature

Stations

Nearby Weather Stations

Station Location Temp. Windchill Dew Point Humidity Wind Precip. Elev Updated Type
                   

Watches & Warnings

Winter Weather Advisory
Issued: 3:45 PM EST Dec. 12, 2017 – National Weather Service

... Winter Weather Advisory in effect from 7 am to 11 PM EST
Wednesday...

* what... snow expected. Plan on difficult travel conditions,
including during the evening commute on Wednesday. Total snow
accumulations of 4 to 8 inches are expected.

* Where... portions of central, south central and southwest
Michigan.

* When... from 7 am to 11 PM EST Wednesday.

* Additional details... be prepared for reduced visibilities at
times.

Precautionary/preparedness actions...

A Winter Weather Advisory for snow means periods of snow will
cause primarily travel difficulties. Be prepared for snow covered
roads and limited visibilities, and use caution while driving.


Weather.Gov/GRR